Time;durP1;ratioP1;P1;durP2;ratioP2;P2;SDS_P1;SDS_P2;PMS_P1;PMS_P2;Temp;Humidity;BMP_temperature;BMP_pressure;BME280_temperature;BME280_humidity;BME280_pressure;Samples;Min_cycle;Max_cycle;Signal;HPM_P1;HPM_P2
2020/12/06 00:04:11;;;;;;;28.23;15.77;;;;;;;3.73;81.03;99179.69;8650164;33;20155;-75
2020/12/06 00:09:13;;;;;;;35.87;15.90;;;;;;;3.74;81.06;99177.88;8667236;33;20491;-75
2020/12/06 00:14:16;;;;;;;52.30;21.10;;;;;;;3.71;80.73;99185.97;8667482;33;20149;-75
2020/12/06 00:19:19;;;;;;;71.30;29.40;;;;;;;3.65;80.60;99196.88;8640185;33;20612;-75
2020/12/06 00:24:22;;;;;;;72.13;29.00;;;;;;;3.72;80.98;99200.88;8667257;33;21130;-75
2020/12/06 00:29:25;;;;;;;55.33;22.87;;;;;;;3.68;80.61;99180.88;8668324;33;20407;-75
2020/12/06 00:34:27;;;;;;;57.53;23.97;;;;;;;3.65;80.52;99163.41;8665665;33;20262;-74
2020/12/06 00:39:30;;;;;;;36.90;19.43;;;;;;;3.66;80.76;99143.97;8662601;33;20993;-76
2020/12/06 00:44:33;;;;;;;32.63;16.63;;;;;;;3.63;80.57;99144.16;8662300;33;20400;-75
2020/12/06 00:49:35;;;;;;;32.57;16.20;;;;;;;3.59;80.44;99110.09;8637787;33;20172;-76
2020/12/06 00:54:37;;;;;;;33.20;15.60;;;;;;;3.49;80.83;99133.56;8658661;33;20189;-75
2020/12/06 00:59:41;;;;;;;35.77;15.70;;;;;;;3.49;80.82;99110.63;8632641;33;20406;-75
2020/12/06 01:04:45;;;;;;;29.77;15.07;;;;;;;3.27;80.43;99147.13;8656089;33;20658;-75
2020/12/06 01:09:47;;;;;;;32.47;14.83;;;;;;;3.25;81.71;99154.28;8657394;33;22026;-75
2020/12/06 01:14:50;;;;;;;33.53;16.47;;;;;;;3.47;81.84;99141.53;8656046;33;20650;-75
2020/12/06 01:19:52;;;;;;;36.60;18.67;;;;;;;3.59;81.54;99129.41;8650228;33;20214;-75
2020/12/06 01:24:54;;;;;;;42.67;19.13;;;;;;;3.66;81.27;99140.50;8650111;33;20182;-75
2020/12/06 01:29:58;;;;;;;34.87;18.10;;;;;;;3.65;81.35;99141.41;8624896;33;20439;-75
2020/12/06 01:35:01;;;;;;;28.97;16.43;;;;;;;3.71;81.17;99110.22;8625098;33;20416;-75
2020/12/06 01:40:04;;;;;;;34.73;16.27;;;;;;;3.78;81.26;99113.34;8624910;33;20939;-75
2020/12/06 01:45:07;;;;;;;34.63;17.67;;;;;;;3.78;80.99;99108.06;8709580;32;20484;-75
2020/12/06 01:50:09;;;;;;;32.60;16.63;;;;;;;3.83;80.90;99142.13;8708210;32;20211;-75
2020/12/06 01:55:13;;;;;;;36.23;18.27;;;;;;;3.88;81.13;99148.84;8709025;32;20937;-75
2020/12/06 02:00:16;;;;;;;37.47;17.23;;;;;;;3.94;80.82;99140.56;8709110;32;20315;-75
2020/12/06 02:05:18;;;;;;;39.17;18.10;;;;;;;3.95;80.73;99128.19;8709203;32;20712;-74
2020/12/06 02:10:20;;;;;;;31.67;16.10;;;;;;;3.87;80.65;99136.59;8705730;32;20689;-75
2020/12/06 02:15:24;;;;;;;26.37;15.00;;;;;;;3.29;81.93;99132.03;8695049;32;20416;-75
2020/12/06 02:20:27;;;;;;;29.70;14.02;;;;;;;3.25;82.01;99146.34;8693046;32;20399;-75
2020/12/06 02:25:30;;;;;;;28.87;14.80;;;;;;;3.28;82.08;99149.66;8692537;32;20416;-76
2020/12/06 02:30:33;;;;;;;26.03;14.73;;;;;;;3.17;82.58;99133.59;8669135;32;20469;-76
2020/12/06 02:35:36;;;;;;;33.37;16.30;;;;;;;3.31;82.36;99109.03;8696873;32;20406;-76
2020/12/06 02:40:38;;;;;;;30.77;16.13;;;;;;;3.53;82.39;99106.00;8703366;32;20427;-73
2020/12/06 02:45:40;;;;;;;32.90;16.13;;;;;;;3.55;81.88;99097.06;8698224;32;20399;-75
2020/12/06 02:50:43;;;;;;;30.93;16.27;;;;;;;3.65;81.95;99110.59;8662237;32;20182;-75
2020/12/06 02:55:45;;;;;;;34.37;16.93;;;;;;;3.81;81.94;99126.38;8691447;32;20203;-75
2020/12/06 03:00:48;;;;;;;29.37;15.73;;;;;;;3.87;81.79;99111.97;8699445;32;20455;-74
2020/12/06 03:05:51;;;;;;;32.67;15.37;;;;;;;3.82;81.28;99111.38;8703982;32;20397;-74
2020/12/06 03:10:53;;;;;;;28.53;14.83;;;;;;;3.72;81.43;99109.28;8706476;32;20488;-75
2020/12/06 03:15:55;;;;;;;28.37;15.13;;;;;;;3.73;81.65;99131.25;8712005;32;20169;-75
2020/12/06 03:21:00;;;;;;;30.97;15.00;;;;;;;3.83;81.86;99136.84;8714730;32;20211;-75
2020/12/06 03:26:03;;;;;;;33.93;15.40;;;;;;;4.00;81.57;99129.66;8716857;32;21496;-74
2020/12/06 03:31:05;;;;;;;32.83;15.37;;;;;;;4.03;82.27;99154.16;8722563;32;20543;-74
2020/12/06 03:36:11;;;;;;;29.83;14.97;;;;;;;4.06;82.29;99154.84;8694297;32;20690;-76
2020/12/06 03:41:14;;;;;;;28.40;14.80;;;;;;;3.87;83.29;99146.31;8714417;32;21139;-75
2020/12/06 03:46:16;;;;;;;30.87;14.57;;;;;;;3.92;83.93;99131.88;8713479;32;20457;-75
2020/12/06 03:51:19;;;;;;;28.67;15.33;;;;;;;4.01;84.21;99119.91;8711423;32;20884;-75
2020/12/06 03:56:21;;;;;;;29.83;14.27;;;;;;;3.99;84.67;99104.13;8712406;32;20173;-76
2020/12/06 04:01:23;;;;;;;29.50;15.83;;;;;;;4.06;85.00;99099.34;8688816;32;20146;-75
2020/12/06 04:06:26;;;;;;;25.13;13.77;;;;;;;4.08;85.38;99091.31;8715086;32;20592;-75
2020/12/06 04:11:29;;;;;;;30.77;14.80;;;;;;;4.05;85.54;99092.34;8694593;32;20710;-76
2020/12/06 04:16:31;;;;;;;28.20;15.07;;;;;;;3.89;85.52;99102.13;8728584;32;20402;-75
2020/12/06 04:21:34;;;;;;;29.40;14.97;;;;;;;3.63;86.60;99115.09;8725288;32;20193;-75
2020/12/06 04:26:36;;;;;;;28.83;14.67;;;;;;;3.47;86.63;99104.59;8723563;32;20181;-75
2020/12/06 04:31:38;;;;;;;31.60;15.60;;;;;;;3.56;87.12;99088.22;8718636;32;20187;-75
2020/12/06 04:36:42;;;;;;;34.17;16.67;;;;;;;3.66;87.24;99085.88;8718160;32;20402;-75
2020/12/06 04:41:44;;;;;;;30.27;14.90;;;;;;;3.82;87.31;99084.97;8716749;32;20241;-76
2020/12/06 04:46:47;;;;;;;31.10;15.13;;;;;;;3.93;87.56;99070.16;8717404;32;20406;-76
2020/12/06 04:51:56;;;;;;;32.77;15.37;;;;;;;3.96;87.40;99072.63;8716002;32;20191;-75
2020/12/06 04:57:04;;;;;;;31.47;15.30;;;;;;;3.95;88.97;99085.91;8689947;32;20175;-76
2020/12/06 05:02:10;;;;;;;33.70;15.17;;;;;;;3.95;89.13;99076.22;8689792;32;20230;-75
2020/12/06 05:07:17;;;;;;;30.70;15.30;;;;;;;4.00;89.18;99076.78;8716761;32;20298;-74
2020/12/06 05:12:20;;;;;;;30.23;14.23;;;;;;;4.03;89.11;99064.31;8718188;32;20415;-73
2020/12/06 05:17:22;;;;;;;30.60;14.23;;;;;;;4.04;89.73;99074.81;8719949;32;20469;-74
2020/12/06 05:22:26;;;;;;;28.27;13.40;;;;;;;4.10;89.44;99078.84;8712226;32;20240;-74
2020/12/06 05:27:29;;;;;;;31.87;14.87;;;;;;;4.11;89.47;99059.41;8687240;32;20185;-74
2020/12/06 05:32:32;;;;;;;36.70;15.80;;;;;;;4.12;89.57;99053.19;8713865;32;20156;-74
2020/12/06 05:37:36;;;;;;;31.77;16.10;;;;;;;4.14;89.53;99046.88;8714350;32;20187;-73
2020/12/06 05:42:40;;;;;;;30.03;16.23;;;;;;;4.14;89.44;99040.72;8652777;32;20519;-73
2020/12/06 05:47:42;;;;;;;34.83;17.10;;;;;;;4.14;89.11;99033.66;8654578;32;20182;-74
2020/12/06 05:52:45;;;;;;;37.33;17.00;;;;;;;4.20;88.87;99043.84;8653684;32;20512;-73
2020/12/06 05:57:48;;;;;;;39.20;15.87;;;;;;;4.20;88.50;99035.91;8654222;32;20408;-74
2020/12/06 06:02:58;;;;;;;34.97;16.30;;;;;;;4.18;88.42;99032.50;8652767;32;20229;-73
2020/12/06 06:08:06;;;;;;;35.77;17.17;;;;;;;4.19;88.37;99020.97;8651468;32;20924;-74
2020/12/06 06:13:10;;;;;;;36.70;17.17;;;;;;;4.27;88.52;99009.94;8675241;32;20180;-73
2020/12/06 06:18:13;;;;;;;40.43;16.93;;;;;;;4.29;88.17;99007.19;8655335;32;20420;-73
2020/12/06 06:23:16;;;;;;;38.87;17.60;;;;;;;4.32;88.56;98993.78;8650893;32;21170;-74
2020/12/06 06:28:19;;;;;;;38.47;17.70;;;;;;;4.33;88.26;99006.03;8650736;32;20524;-74
2020/12/06 06:33:22;;;;;;;43.37;18.77;;;;;;;4.36;88.82;99011.13;8651281;32;20635;-74
2020/12/06 06:38:26;;;;;;;40.83;18.13;;;;;;;4.38;88.36;99018.03;8654214;32;20283;-73
2020/12/06 06:43:28;;;;;;;41.70;19.93;;;;;;;4.42;88.39;99026.63;8654244;32;20452;-73
2020/12/06 06:48:30;;;;;;;36.23;18.03;;;;;;;4.46;88.64;99017.53;8656697;32;20461;-73
2020/12/06 06:53:34;;;;;;;41.63;19.02;;;;;;;4.48;88.56;99009.53;8653735;32;20428;-73
2020/12/06 06:58:37;;;;;;;38.92;18.30;;;;;;;4.48;88.56;99010.38;8654288;32;20410;-74
2020/12/06 07:03:43;;;;;;;41.30;18.23;;;;;;;4.47;88.70;99019.25;8658211;32;20191;-74
2020/12/06 07:08:47;;;;;;;41.90;18.43;;;;;;;4.44;88.58;99024.72;8660633;32;20495;-74
2020/12/06 07:13:49;;;;;;;44.33;17.93;;;;;;;4.49;88.69;99027.94;8662315;32;20235;-74
2020/12/06 07:18:52;;;;;;;38.08;16.90;;;;;;;4.50;88.26;99018.19;8660189;32;21036;-72
2020/12/06 07:23:57;;;;;;;42.70;19.25;;;;;;;4.53;88.70;99023.31;8658203;32;20409;-73
2020/12/06 07:29:00;;;;;;;44.10;17.95;;;;;;;4.43;88.11;99052.97;8660041;32;20416;-72
2020/12/06 07:34:03;;;;;;;42.00;18.37;;;;;;;4.43;88.60;99031.81;8659348;32;20171;-73
2020/12/06 07:39:17;;;;;;;47.67;20.20;;;;;;;4.49;88.33;99033.22;8660200;32;21755;-73
2020/12/06 07:44:19;;;;;;;38.70;19.50;;;;;;;4.55;88.43;99034.63;8720356;32;21209;-73
2020/12/06 07:49:21;;;;;;;45.78;21.67;;;;;;;4.59;88.71;99029.06;8675663;32;20412;-73
2020/12/06 07:54:24;;;;;;;41.83;19.15;;;;;;;4.60;88.76;99021.97;8680677;32;20974;-73
2020/12/06 07:59:27;;;;;;;42.67;19.87;;;;;;;4.63;88.47;99024.41;8635099;33;20127;-73
2020/12/06 08:04:33;;;;;;;49.23;19.67;;;;;;;4.61;88.20;99021.03;8635840;33;20411;-73
2020/12/06 08:09:40;;;;;;;42.93;19.37;;;;;;;4.62;88.42;99009.50;8660341;33;20239;-73
2020/12/06 08:14:43;;;;;;;44.30;20.33;;;;;;;4.59;88.51;99007.03;8664967;33;20173;-73
2020/12/06 08:19:45;;;;;;;22.17;10.37;;;;;;;4.64;88.68;99000.50;8666264;33;20398;-73
2020/12/06 08:24:48;;;;;;;53.03;19.88;;;;;;;5.09;89.13;98982.56;8725666;32;21015;-73
2020/12/06 08:29:54;;;;;;;59.72;26.30;;;;;;;5.27;89.01;98977.00;8718100;32;20176;-74
2020/12/06 08:34:57;;;;;;;57.92;24.08;;;;;;;5.26;88.62;98993.81;8718965;32;20467;-72
2020/12/06 08:40:04;;;;;;;47.35;22.02;;;;;;;5.31;88.83;98999.66;8717655;32;20130;-72
2020/12/06 08:45:06;;;;;;;43.38;19.92;;;;;;;5.31;88.94;98986.41;8695853;32;20423;-73
2020/12/06 08:50:12;;;;;;;34.97;17.17;;;;;;;5.26;88.61;99002.59;8721106;32;20484;-73
2020/12/06 08:55:27;;;;;;;32.08;16.48;;;;;;;5.24;88.61;98991.28;8720888;32;20185;-72
2020/12/06 09:00:30;;;;;;;23.42;12.10;;;;;;;5.31;88.70;98987.25;8663621;32;20174;-74
2020/12/06 09:05:32;;;;;;;27.55;13.40;;;;;;;5.37;88.55;98982.50;8724030;32;20191;-72
2020/12/06 09:10:35;;;;;;;26.58;13.15;;;;;;;5.27;88.62;98983.13;8725035;32;20997;-72
2020/12/06 09:15:38;;;;;;;26.27;13.73;;;;;;;5.28;88.45;98976.03;8660580;32;20429;-72
2020/12/06 09:20:40;;;;;;;27.35;14.20;;;;;;;5.12;88.40;98976.22;8672534;32;20179;-72
2020/12/06 09:25:43;;;;;;;25.92;12.48;;;;;;;5.07;88.51;98988.91;8679391;32;20190;-72
2020/12/06 09:30:46;;;;;;;25.48;12.63;;;;;;;5.04;88.50;98989.09;8693896;32;21335;-72
2020/12/06 09:35:49;;;;;;;27.85;13.63;;;;;;;5.01;88.46;98974.28;8723812;32;20410;-72
2020/12/06 09:40:52;;;;;;;25.63;12.30;;;;;;;5.02;88.57;98972.47;8691729;32;20126;-71
2020/12/06 09:45:54;;;;;;;29.13;13.45;;;;;;;5.06;88.84;98951.00;8718529;32;20170;-72
2020/12/06 09:50:57;;;;;;;29.17;14.53;;;;;;;5.11;88.63;98946.25;8722313;32;20200;-72
2020/12/06 09:56:00;;;;;;;30.10;14.23;;;;;;;5.16;88.64;98931.88;8702226;32;20235;-73
2020/12/06 10:01:03;;;;;;;29.58;14.57;;;;;;;5.08;88.32;98949.09;8735975;32;20441;-72
2020/12/06 10:06:05;;;;;;;34.30;15.53;;;;;;;5.08;88.58;98951.75;8686185;32;21211;-72
2020/12/06 10:11:08;;;;;;;35.28;16.02;;;;;;;5.08;88.56;98962.34;8734970;32;20185;-72
2020/12/06 10:16:16;;;;;;;37.53;15.02;;;;;;;5.10;88.56;98970.16;8690622;32;20256;-72
2020/12/06 10:21:18;;;;;;;40.07;16.57;;;;;;;5.13;88.75;98962.88;8634521;32;20194;-73
2020/12/06 10:26:21;;;;;;;33.87;16.50;;;;;;;5.20;88.61;98952.72;8620354;33;20536;-72
2020/12/06 10:31:24;;;;;;;43.67;19.13;;;;;;;5.18;88.67;98945.81;8658886;32;20446;-72
2020/12/06 10:36:26;;;;;;;33.23;17.23;;;;;;;5.21;88.53;98940.31;8678006;32;20191;-71
2020/12/06 10:41:29;;;;;;;45.10;17.93;;;;;;;5.27;88.82;98924.88;8683064;32;20729;-72
2020/12/06 10:46:31;;;;;;;62.07;26.73;;;;;;;5.27;88.69;98908.16;8686215;32;20239;-72
2020/12/06 10:51:34;;;;;;;49.47;22.38;;;;;;;5.22;88.67;98899.66;8682507;32;20526;-72
2020/12/06 10:56:39;;;;;;;44.00;19.83;;;;;;;5.25;88.71;98883.56;8680647;32;20130;-72
2020/12/06 11:01:41;;;;;;;53.78;27.08;;;;;;;5.07;88.10;98886.53;8677069;32;20425;-71
2020/12/06 11:06:44;;;;;;;43.70;20.10;;;;;;;5.09;88.63;98881.13;8679840;32;20626;-71
2020/12/06 11:11:50;;;;;;;44.88;20.13;;;;;;;5.08;88.57;98856.44;8681811;32;20398;-71
2020/12/06 11:16:52;;;;;;;64.13;25.70;;;;;;;5.15;88.69;98840.16;8680055;32;20405;-72
2020/12/06 11:21:55;;;;;;;58.92;23.27;;;;;;;5.22;88.58;98826.38;8680778;32;20150;-71
2020/12/06 11:26:59;;;;;;;52.30;21.73;;;;;;;5.17;87.83;98828.50;8651785;32;20426;-73
2020/12/06 11:32:01;;;;;;;47.03;21.33;;;;;;;5.25;89.13;98826.16;8600844;33;20445;-72
2020/12/06 11:37:03;;;;;;;48.37;21.87;;;;;;;5.33;88.59;98820.34;8608452;33;20159;-72
2020/12/06 11:42:07;;;;;;;52.70;23.20;;;;;;;5.41;88.16;98823.28;8609151;33;20498;-72
2020/12/06 11:47:09;;;;;;;51.77;21.67;;;;;;;5.50;88.61;98827.94;8605971;33;20152;-72
2020/12/06 11:52:11;;;;;;;49.33;22.50;;;;;;;5.67;88.81;98826.72;8617390;33;20274;-72
2020/12/06 11:57:14;;;;;;;53.58;23.15;;;;;;;5.72;88.63;98831.69;8607896;33;20557;-72
2020/12/06 12:02:17;;;;;;;49.53;20.63;;;;;;;5.85;88.73;98829.03;8604420;33;20535;-71
2020/12/06 12:07:19;;;;;;;52.60;22.50;;;;;;;5.90;88.69;98822.44;8664943;32;20424;-71
2020/12/06 12:12:22;;;;;;;49.53;22.90;;;;;;;5.83;88.27;98834.44;8678007;32;20174;-71
2020/12/06 12:17:24;;;;;;;55.25;22.98;;;;;;;5.77;88.04;98813.69;8679350;32;20228;-71
2020/12/06 12:22:27;;;;;;;51.53;22.60;;;;;;;5.74;88.15;98830.63;8662920;33;20501;-71
2020/12/06 12:27:30;;;;;;;44.90;20.77;;;;;;;5.66;87.62;98835.66;8661115;33;20420;-71
2020/12/06 12:32:32;;;;;;;56.92;26.15;;;;;;;5.77;87.88;98843.66;8658908;33;20196;-71
2020/12/06 12:37:35;;;;;;;50.00;21.55;;;;;;;5.69;87.83;98827.47;8634408;33;20429;-71
2020/12/06 12:42:38;;;;;;;49.95;21.65;;;;;;;5.74;87.89;98837.75;8635936;33;20554;-70
2020/12/06 12:47:40;;;;;;;48.97;19.95;;;;;;;5.73;88.02;98850.16;8634846;33;20142;-71
2020/12/06 12:52:46;;;;;;;57.10;22.92;;;;;;;5.66;87.99;98846.25;8661406;33;20474;-71
2020/12/06 12:57:49;;;;;;;48.50;22.48;;;;;;;5.64;87.66;98842.84;8696724;32;20436;-71
2020/12/06 13:02:55;;;;;;;55.10;22.67;;;;;;;5.68;88.00;98832.91;8643933;32;20395;-72
2020/12/06 13:07:57;;;;;;;52.03;23.23;;;;;;;5.79;87.95;98827.66;8649444;32;20204;-72
2020/12/06 13:13:01;;;;;;;55.05;24.95;;;;;;;5.79;88.08;98835.63;8665931;32;20462;-72
2020/12/06 13:18:03;;;;;;;50.00;21.75;;;;;;;5.77;87.85;98817.16;8666266;33;21504;-72
2020/12/06 13:23:05;;;;;;;57.33;22.52;;;;;;;5.79;87.65;98819.72;8665324;33;20421;-71
2020/12/06 13:28:08;;;;;;;54.80;23.98;;;;;;;5.83;87.91;98817.69;8682469;32;20599;-72
2020/12/06 13:33:11;;;;;;;51.40;22.27;;;;;;;5.84;87.93;98811.41;8723754;32;20726;-72
2020/12/06 13:38:13;;;;;;;55.53;23.80;;;;;;;5.91;87.80;98804.72;8721192;32;20504;-72
2020/12/06 13:43:16;;;;;;;57.78;22.88;;;;;;;5.89;88.02;98793.38;8715735;32;20937;-71
2020/12/06 13:48:18;;;;;;;54.90;23.40;;;;;;;5.92;88.13;98801.09;8714158;32;20192;-72
2020/12/06 13:53:21;;;;;;;53.67;23.30;;;;;;;5.90;88.00;98787.97;8712763;32;20423;-72
2020/12/06 13:58:24;;;;;;;59.80;25.70;;;;;;;5.88;87.95;98792.53;8654107;32;21285;-71
2020/12/06 14:03:26;;;;;;;61.35;24.20;;;;;;;5.84;87.82;98803.47;8653051;33;20412;-71
2020/12/06 14:08:28;;;;;;;57.80;24.35;;;;;;;5.79;87.44;98772.84;8656821;33;20255;-71
2020/12/06 14:13:32;;;;;;;54.72;23.80;;;;;;;5.88;87.82;98767.84;8642263;33;21774;-70
2020/12/06 14:18:35;;;;;;;61.50;23.10;;;;;;;5.92;87.90;98772.78;8649704;33;20678;-70
2020/12/06 14:23:38;;;;;;;69.70;26.02;;;;;;;5.96;87.79;98776.97;8648731;32;20170;-72
2020/12/06 14:28:41;;;;;;;52.83;22.05;;;;;;;5.94;87.72;98791.28;8649962;32;20632;-71
2020/12/06 14:33:43;;;;;;;56.47;23.00;;;;;;;5.87;87.88;98813.84;8647713;32;20142;-71
2020/12/06 14:38:46;;;;;;;55.83;23.15;;;;;;;5.85;87.69;98798.06;8647985;32;20971;-73
2020/12/06 14:43:49;;;;;;;60.00;24.63;;;;;;;5.74;87.74;98796.19;8646050;32;20298;-70
2020/12/06 14:48:51;;;;;;;59.35;24.85;;;;;;;5.65;87.47;98806.59;8646464;32;20235;-70
2020/12/06 14:54:06;;;;;;;56.22;23.05;;;;;;;5.70;87.73;98817.72;8632773;32;20240;-71
2020/12/06 14:59:09;;;;;;;54.25;24.85;;;;;;;5.72;87.59;98816.66;8645638;32;21096;-71
2020/12/06 15:04:11;;;;;;;58.17;24.05;;;;;;;5.72;87.65;98827.25;8648470;32;20429;-71
2020/12/06 15:09:13;;;;;;;60.60;23.98;;;;;;;5.72;87.89;98798.09;8649381;32;20463;-72
2020/12/06 15:14:16;;;;;;;58.20;24.00;;;;;;;5.76;87.93;98794.28;8651493;32;20142;-73
2020/12/06 15:19:18;;;;;;;59.28;23.55;;;;;;;5.76;87.71;98801.41;8644484;32;20548;-70
2020/12/06 15:24:21;;;;;;;58.65;25.35;;;;;;;5.74;87.67;98804.13;8645902;32;20510;-72
2020/12/06 15:29:24;;;;;;;63.45;26.05;;;;;;;5.71;87.97;98807.00;8646809;32;20541;-72
2020/12/06 15:34:26;;;;;;;63.42;28.25;;;;;;;5.69;87.62;98808.09;8648895;32;20190;-72
2020/12/06 15:39:29;;;;;;;62.47;26.55;;;;;;;5.68;87.45;98804.59;8653511;32;20522;-72
2020/12/06 15:44:32;;;;;;;59.63;25.08;;;;;;;5.66;87.68;98805.66;8622804;32;20199;-72
2020/12/06 15:49:38;;;;;;;59.40;24.60;;;;;;;5.60;87.67;98801.66;8589859;33;20159;-72
2020/12/06 15:54:40;;;;;;;72.82;28.85;;;;;;;5.61;87.72;98797.19;8591544;33;20542;-72
2020/12/06 15:59:44;;;;;;;82.72;34.03;;;;;;;5.62;87.94;98791.75;8608132;33;21250;-71
2020/12/06 16:04:46;;;;;;;71.40;28.05;;;;;;;5.65;88.02;98790.69;8608357;33;20402;-71
2020/12/06 16:09:48;;;;;;;65.40;26.27;;;;;;;5.63;87.55;98788.19;8633579;33;20402;-71
2020/12/06 16:14:51;;;;;;;71.38;28.25;;;;;;;5.66;88.00;98776.50;8658614;33;20127;-73
2020/12/06 16:19:53;;;;;;;67.03;25.83;;;;;;;5.63;87.76;98777.56;8633645;33;20186;-72
2020/12/06 16:24:56;;;;;;;60.65;24.88;;;;;;;5.63;87.35;98788.19;8656876;33;20812;-71
2020/12/06 16:29:59;;;;;;;64.50;26.23;;;;;;;5.62;87.96;98796.22;8669593;32;20242;-70
2020/12/06 16:35:01;;;;;;;64.63;26.20;;;;;;;5.61;87.48;98798.03;8708622;32;20304;-71
2020/12/06 16:40:06;;;;;;;63.25;25.38;;;;;;;5.60;87.89;98814.91;8703237;32;20415;-71
2020/12/06 16:45:09;;;;;;;60.28;25.70;;;;;;;5.57;87.86;98826.56;8691756;32;20130;-71
2020/12/06 16:50:12;;;;;;;68.07;25.60;;;;;;;5.57;87.79;98834.50;8693780;32;20444;-71
2020/12/06 16:55:15;;;;;;;74.72;29.20;;;;;;;5.55;87.70;98844.34;8692104;32;20235;-71
2020/12/06 17:00:18;;;;;;;68.50;27.58;;;;;;;5.56;87.60;98831.94;8700989;32;20905;-71
2020/12/06 17:05:20;;;;;;;78.57;27.60;;;;;;;5.53;87.77;98838.31;8704678;32;20229;-72
2020/12/06 17:10:23;;;;;;;66.45;27.25;;;;;;;5.56;87.74;98824.84;8704657;32;20181;-72
2020/12/06 17:15:26;;;;;;;68.60;27.25;;;;;;;5.56;87.67;98827.50;8701291;32;20428;-72
2020/12/06 17:20:28;;;;;;;74.60;27.23;;;;;;;5.61;88.38;98821.88;8677468;32;20405;-72
2020/12/06 17:25:30;;;;;;;72.03;28.13;;;;;;;5.64;87.98;98812.88;8702365;32;20130;-72
2020/12/06 17:37:57;;;;;;;86.28;32.40;;;;;;;5.60;87.95;98814.91;8708072;32;21180;-73
2020/12/06 17:43:00;;;;;;;76.45;28.42;;;;;;;5.64;87.74;98818.16;8710674;32;20481;-71
2020/12/06 17:48:02;;;;;;;63.42;25.55;;;;;;;5.66;87.95;98808.31;8687376;32;20130;-72
2020/12/06 17:53:05;;;;;;;75.03;30.05;;;;;;;5.71;88.13;98791.13;8716907;32;20646;-72
2020/12/06 17:58:07;;;;;;;68.05;29.50;;;;;;;5.54;87.37;98787.03;8719667;32;20177;-72
2020/12/06 18:03:09;;;;;;;77.88;29.45;;;;;;;5.54;87.65;98765.00;8717886;32;20180;-71
2020/12/06 18:08:12;;;;;;;65.80;26.73;;;;;;;5.52;87.56;98772.22;8717978;32;20141;-72
2020/12/06 18:13:14;;;;;;;70.50;27.58;;;;;;;5.30;87.29;98763.13;8692102;32;22097;-72
2020/12/06 18:18:17;;;;;;;83.07;33.00;;;;;;;5.42;87.61;98761.41;8712821;32;20443;-72
2020/12/06 18:23:20;;;;;;;101.88;38.92;;;;;;;5.54;87.70;98768.50;8712576;32;20450;-72
2020/12/06 18:28:22;;;;;;;98.07;33.95;;;;;;;5.59;87.71;98773.44;8717530;32;21084;-72
2020/12/06 18:33:24;;;;;;;71.53;28.23;;;;;;;5.60;87.59;98791.03;8667239;32;20198;-71
2020/12/06 18:38:27;;;;;;;65.57;24.15;;;;;;;5.55;87.31;98793.19;8712882;32;20328;-72
2020/12/06 18:43:29;;;;;;;64.50;26.40;;;;;;;5.58;87.70;98771.75;8685134;32;20206;-71
2020/12/06 18:48:32;;;;;;;61.33;24.02;;;;;;;5.63;87.81;98779.38;8666664;32;20417;-71
2020/12/06 18:53:51;;;;;;;62.22;25.02;;;;;;;5.66;87.61;98777.34;8621098;33;20403;-71
2020/12/06 18:58:53;;;;;;;63.92;26.80;;;;;;;5.68;87.56;98771.97;8652955;33;20208;-72
2020/12/06 19:04:01;;;;;;;102.57;37.28;;;;;;;5.69;87.61;98779.78;8697568;32;20134;-71
2020/12/06 19:09:04;;;;;;;76.85;29.70;;;;;;;5.72;87.65;98771.59;8658022;32;20211;-71
2020/12/06 19:14:06;;;;;;;62.38;26.02;;;;;;;5.76;87.64;98751.88;8660812;32;20138;-71
2020/12/06 19:19:09;;;;;;;73.97;28.90;;;;;;;5.74;87.79;98740.53;8660435;32;20623;-72
2020/12/06 19:24:12;;;;;;;72.30;30.88;;;;;;;5.74;87.65;98731.75;8662291;32;20402;-72
2020/12/06 19:29:17;;;;;;;78.47;29.95;;;;;;;5.78;87.68;98730.56;8666984;32;20433;-72
2020/12/06 19:34:20;;;;;;;69.82;28.10;;;;;;;5.79;87.63;98714.56;8667301;32;20191;-72
2020/12/06 19:39:23;;;;;;;75.28;29.33;;;;;;;5.74;87.76;98724.66;8666251;32;20409;-72
2020/12/06 19:44:25;;;;;;;75.10;29.45;;;;;;;5.77;87.58;98723.56;8668259;32;20279;-72
2020/12/06 19:49:27;;;;;;;70.82;28.67;;;;;;;5.77;87.64;98724.41;8674641;32;20185;-72
2020/12/06 19:54:30;;;;;;;71.22;27.35;;;;;;;5.72;87.70;98713.31;8682286;32;20979;-72
2020/12/06 19:59:33;;;;;;;70.90;29.58;;;;;;;5.71;87.66;98716.94;8682038;32;20538;-72
2020/12/06 20:04:38;;;;;;;71.50;30.60;;;;;;;5.71;87.93;98708.13;8680995;32;20455;-71
2020/12/06 20:09:41;;;;;;;78.35;31.65;;;;;;;5.67;87.85;98712.78;8665712;32;20422;-72
2020/12/06 20:14:48;;;;;;;78.20;30.40;;;;;;;5.65;87.80;98706.78;8677801;32;20406;-72
2020/12/06 20:19:50;;;;;;;73.53;29.52;;;;;;;5.67;87.79;98706.66;8679252;32;20200;-72
2020/12/06 20:24:54;;;;;;;73.85;30.58;;;;;;;5.68;87.76;98708.38;8681070;32;20188;-72
2020/12/06 20:29:58;;;;;;;70.25;29.13;;;;;;;5.69;87.91;98708.25;8681150;32;20988;-72
2020/12/06 20:35:00;;;;;;;69.05;29.88;;;;;;;5.71;87.82;98714.28;8683601;32;20158;-72
2020/12/06 20:40:03;;;;;;;72.85;26.80;;;;;;;5.68;87.71;98700.41;8671266;32;20189;-72
2020/12/06 20:45:06;;;;;;;73.47;28.98;;;;;;;5.69;87.83;98670.31;8666534;32;20511;-72
2020/12/06 20:50:08;;;;;;;74.88;28.77;;;;;;;5.66;87.51;98681.13;8662650;32;20463;-71
2020/12/06 20:55:11;;;;;;;70.63;28.77;;;;;;;5.63;88.25;98676.06;8662265;32;20168;-72
2020/12/06 21:00:13;;;;;;;76.68;29.70;;;;;;;5.64;87.86;98691.00;8660029;32;20138;-71
2020/12/06 21:05:15;;;;;;;65.55;27.85;;;;;;;5.61;87.79;98700.00;8664188;32;20134;-72
2020/12/06 21:10:21;;;;;;;63.17;25.37;;;;;;;5.53;87.61;98718.25;8662691;32;20445;-71
2020/12/06 21:15:23;;;;;;;66.43;27.20;;;;;;;5.46;87.48;98722.34;8664634;32;20424;-71
2020/12/06 21:20:32;;;;;;;62.58;25.20;;;;;;;5.40;87.48;98709.50;8667796;32;20150;-71
2020/12/06 21:25:36;;;;;;;56.58;26.77;;;;;;;5.44;87.64;98708.34;8674567;32;20469;-72
2020/12/06 21:30:38;;;;;;;62.42;26.60;;;;;;;5.50;87.86;98681.41;8672552;32;20405;-73
2020/12/06 21:35:40;;;;;;;67.83;28.17;;;;;;;5.49;87.84;98669.97;8682090;32;20190;-73
2020/12/06 21:40:43;;;;;;;66.45;29.77;;;;;;;5.53;88.13;98671.41;8678346;32;20217;-72
2020/12/06 21:45:46;;;;;;;69.72;29.90;;;;;;;5.48;88.29;98664.78;8641588;33;20459;-73
2020/12/06 21:50:49;;;;;;;69.32;29.90;;;;;;;5.50;88.44;98663.69;8590366;33;21465;-73
2020/12/06 21:55:52;;;;;;;70.35;27.95;;;;;;;5.51;88.57;98661.91;8615169;33;20128;-72
2020/12/06 22:00:54;;;;;;;63.80;28.35;;;;;;;5.55;88.57;98666.03;8618126;33;20186;-73
2020/12/06 22:05:56;;;;;;;72.28;28.70;;;;;;;5.58;88.54;98645.44;8617517;33;20179;-72
2020/12/06 22:11:00;;;;;;;66.18;26.77;;;;;;;5.52;88.24;98632.66;8618055;33;20225;-72
2020/12/06 22:16:02;;;;;;;61.22;26.45;;;;;;;5.56;88.46;98633.28;8622016;33;20731;-72
2020/12/06 22:21:05;;;;;;;64.03;27.42;;;;;;;5.57;88.20;98640.28;8622653;33;20489;-72
2020/12/06 22:26:08;;;;;;;71.28;29.23;;;;;;;5.59;88.34;98638.34;8622944;33;20428;-72
2020/12/06 22:31:10;;;;;;;69.88;28.33;;;;;;;5.56;88.63;98627.97;8618619;33;21771;-73
2020/12/06 22:36:12;;;;;;;78.05;33.42;;;;;;;5.55;88.75;98629.78;8612125;33;20310;-73
2020/12/06 22:41:16;;;;;;;72.65;30.63;;;;;;;5.57;88.35;98629.69;8617158;33;21322;-72
2020/12/06 22:46:19;;;;;;;71.18;30.02;;;;;;;5.57;88.43;98609.31;8613487;33;21044;-72
2020/12/06 22:51:21;;;;;;;69.82;28.48;;;;;;;5.63;88.63;98626.56;8576933;33;21062;-73
2020/12/06 22:56:24;;;;;;;73.50;29.75;;;;;;;5.66;88.43;98636.09;8601725;33;20473;-72
2020/12/06 23:01:27;;;;;;;62.22;28.33;;;;;;;5.63;88.61;98631.88;8601291;33;20474;-73
2020/12/06 23:06:29;;;;;;;72.10;28.23;;;;;;;5.61;88.47;98628.47;8601967;33;20186;-73
2020/12/06 23:11:36;;;;;;;74.40;27.38;;;;;;;5.65;88.38;98637.03;8601537;33;20175;-73
2020/12/06 23:16:39;;;;;;;67.10;30.55;;;;;;;5.58;88.63;98636.66;8609269;33;20472;-72
2020/12/06 23:21:41;;;;;;;68.43;29.77;;;;;;;5.60;88.79;98615.38;8614149;33;20826;-72
2020/12/06 23:26:44;;;;;;;62.33;26.45;;;;;;;5.60;88.77;98615.38;8613520;33;20194;-72
2020/12/06 23:31:47;;;;;;;69.43;27.65;;;;;;;5.62;88.75;98590.41;8614350;33;20691;-73
2020/12/06 23:36:50;;;;;;;68.60;28.88;;;;;;;5.67;88.88;98576.84;8615245;33;20413;-72